sensor_id;sensor_type;location;lat;lon;timestamp;pressure;altitude;pressure_sealevel;temperature;humidity
49072;BME280;52656;52.610;10.236;2023-05-21T00:00:57;101489.41;;;13.18;76.17
49072;BME280;52656;52.610;10.236;2023-05-21T00:03:23;101480.44;;;13.20;76.40
49072;BME280;52656;52.610;10.236;2023-05-21T00:05:51;101485.13;;;13.14;76.68
49072;BME280;52656;52.610;10.236;2023-05-21T00:08:16;101486.00;;;13.14;76.52
49072;BME280;52656;52.610;10.236;2023-05-21T00:10:41;101481.03;;;13.05;77.16
49072;BME280;52656;52.610;10.236;2023-05-21T00:13:07;101477.63;;;13.02;77.04
49072;BME280;52656;52.610;10.236;2023-05-21T00:15:33;101477.78;;;12.97;77.55
49072;BME280;52656;52.610;10.236;2023-05-21T00:17:58;101476.50;;;13.07;76.87
49072;BME280;52656;52.610;10.236;2023-05-21T00:20:24;101474.09;;;13.01;77.20
49072;BME280;52656;52.610;10.236;2023-05-21T00:22:49;101468.88;;;12.98;77.25
49072;BME280;52656;52.610;10.236;2023-05-21T00:25:14;101462.00;;;12.92;77.23
49072;BME280;52656;52.610;10.236;2023-05-21T00:27:39;101465.50;;;12.94;77.36
49072;BME280;52656;52.610;10.236;2023-05-21T00:30:05;101457.63;;;12.91;77.21
49072;BME280;52656;52.610;10.236;2023-05-21T00:32:31;101450.09;;;12.79;78.01
49072;BME280;52656;52.610;10.236;2023-05-21T00:34:56;101451.03;;;12.78;77.70
49072;BME280;52656;52.610;10.236;2023-05-21T00:37:22;101455.31;;;12.82;77.33
49072;BME280;52656;52.610;10.236;2023-05-21T00:39:48;101449.16;;;12.80;77.57
49072;BME280;52656;52.610;10.236;2023-05-21T00:42:14;101439.59;;;12.76;77.52
49072;BME280;52656;52.610;10.236;2023-05-21T00:44:45;101447.63;;;12.75;77.56
49072;BME280;52656;52.610;10.236;2023-05-21T00:47:12;101443.84;;;12.80;77.14
49072;BME280;52656;52.610;10.236;2023-05-21T00:49:38;101452.66;;;12.59;77.58
49072;BME280;52656;52.610;10.236;2023-05-21T00:52:04;101440.66;;;12.72;77.43
49072;BME280;52656;52.610;10.236;2023-05-21T00:54:29;101441.03;;;12.61;78.03
49072;BME280;52656;52.610;10.236;2023-05-21T00:56:55;101440.00;;;12.65;77.55
49072;BME280;52656;52.610;10.236;2023-05-21T00:59:20;101436.72;;;12.59;77.69
49072;BME280;52656;52.610;10.236;2023-05-21T01:01:46;101432.53;;;12.75;76.93
49072;BME280;52656;52.610;10.236;2023-05-21T01:04:18;101427.28;;;12.74;76.88
49072;BME280;52656;52.610;10.236;2023-05-21T01:06:44;101432.72;;;12.70;76.71
49072;BME280;52656;52.610;10.236;2023-05-21T01:09:09;101426.41;;;12.73;76.28
49072;BME280;52656;52.610;10.236;2023-05-21T01:11:39;101432.03;;;12.65;76.46
49072;BME280;52656;52.610;10.236;2023-05-21T01:14:05;101433.28;;;12.55;77.15
49072;BME280;52656;52.610;10.236;2023-05-21T01:16:35;101429.78;;;12.55;76.90
49072;BME280;52656;52.610;10.236;2023-05-21T01:19:01;101424.03;;;12.65;76.51
49072;BME280;52656;52.610;10.236;2023-05-21T01:21:28;101422.44;;;12.61;76.52
49072;BME280;52656;52.610;10.236;2023-05-21T01:23:54;101416.19;;;12.62;76.78
49072;BME280;52656;52.610;10.236;2023-05-21T01:26:20;101418.28;;;12.54;77.08
49072;BME280;52656;52.610;10.236;2023-05-21T01:28:45;101419.56;;;12.67;76.21
49072;BME280;52656;52.610;10.236;2023-05-21T01:31:22;101427.53;;;12.42;76.74
49072;BME280;52656;52.610;10.236;2023-05-21T01:33:50;101423.59;;;12.54;76.23
49072;BME280;52656;52.610;10.236;2023-05-21T01:36:22;101420.19;;;12.51;76.58
49072;BME280;52656;52.610;10.236;2023-05-21T01:39:01;101419.34;;;12.49;76.78
49072;BME280;52656;52.610;10.236;2023-05-21T01:41:32;101418.47;;;12.48;76.62
49072;BME280;52656;52.610;10.236;2023-05-21T01:43:59;101414.94;;;12.47;76.55
49072;BME280;52656;52.610;10.236;2023-05-21T01:46:26;101418.59;;;12.45;76.72
49072;BME280;52656;52.610;10.236;2023-05-21T01:48:54;101412.72;;;12.60;76.02
49072;BME280;52656;52.610;10.236;2023-05-21T01:51:20;101411.50;;;12.44;76.60
49072;BME280;52656;52.610;10.236;2023-05-21T01:53:45;101415.72;;;12.51;76.14
49072;BME280;52656;52.610;10.236;2023-05-21T01:56:10;101416.59;;;12.52;76.05
49072;BME280;52656;52.610;10.236;2023-05-21T01:58:36;101411.22;;;12.28;77.21
49072;BME280;52656;52.610;10.236;2023-05-21T02:01:02;101412.97;;;12.54;76.45
49072;BME280;52656;52.610;10.236;2023-05-21T02:03:28;101405.69;;;12.59;75.84
49072;BME280;52656;52.610;10.236;2023-05-21T02:05:55;101406.97;;;12.49;75.65
49072;BME280;52656;52.610;10.236;2023-05-21T02:08:20;101406.88;;;12.51;76.02
49072;BME280;52656;52.610;10.236;2023-05-21T02:10:47;101410.72;;;12.42;76.61
49072;BME280;52656;52.610;10.236;2023-05-21T02:13:13;101407.03;;;12.46;76.14
49072;BME280;52656;52.610;10.236;2023-05-21T02:15:38;101409.91;;;12.40;76.57
49072;BME280;52656;52.610;10.236;2023-05-21T02:18:04;101412.28;;;12.49;76.00
49072;BME280;52656;52.610;10.236;2023-05-21T02:20:29;101407.38;;;12.37;76.66
49072;BME280;52656;52.610;10.236;2023-05-21T02:22:55;101413.59;;;12.36;76.45
49072;BME280;52656;52.610;10.236;2023-05-21T02:25:21;101408.63;;;12.27;76.82
49072;BME280;52656;52.610;10.236;2023-05-21T02:27:46;101407.97;;;12.20;77.33
49072;BME280;52656;52.610;10.236;2023-05-21T02:30:13;101403.88;;;12.35;76.84
49072;BME280;52656;52.610;10.236;2023-05-21T02:32:39;101400.22;;;12.14;77.91
49072;BME280;52656;52.610;10.236;2023-05-21T02:35:07;101406.16;;;12.22;77.56
49072;BME280;52656;52.610;10.236;2023-05-21T02:37:33;101402.56;;;12.23;77.20
49072;BME280;52656;52.610;10.236;2023-05-21T02:40:00;101401.53;;;12.27;77.30
49072;BME280;52656;52.610;10.236;2023-05-21T02:42:26;101406.84;;;12.27;77.18
49072;BME280;52656;52.610;10.236;2023-05-21T02:44:52;101398.19;;;12.22;76.97
49072;BME280;52656;52.610;10.236;2023-05-21T02:47:18;101403.69;;;12.16;77.47
49072;BME280;52656;52.610;10.236;2023-05-21T02:49:44;101402.19;;;12.09;77.63
49072;BME280;52656;52.610;10.236;2023-05-21T02:52:09;101403.09;;;12.08;77.54
49072;BME280;52656;52.610;10.236;2023-05-21T02:54:35;101402.03;;;12.13;77.40
49072;BME280;52656;52.610;10.236;2023-05-21T02:57:00;101397.56;;;12.14;77.54
49072;BME280;52656;52.610;10.236;2023-05-21T02:59:25;101399.47;;;12.10;77.80
49072;BME280;52656;52.610;10.236;2023-05-21T03:01:51;101395.19;;;12.06;77.94
49072;BME280;52656;52.610;10.236;2023-05-21T03:04:16;101390.63;;;12.10;77.45
49072;BME280;52656;52.610;10.236;2023-05-21T03:06:42;101394.31;;;12.06;78.05
49072;BME280;52656;52.610;10.236;2023-05-21T03:09:08;101391.09;;;12.21;76.85
49072;BME280;52656;52.610;10.236;2023-05-21T03:11:33;101392.13;;;12.17;77.38
49072;BME280;52656;52.610;10.236;2023-05-21T03:13:59;101379.09;;;12.11;77.62
49072;BME280;52656;52.610;10.236;2023-05-21T03:16:24;101384.34;;;12.12;77.46
49072;BME280;52656;52.610;10.236;2023-05-21T03:18:50;101386.34;;;12.06;77.77
49072;BME280;52656;52.610;10.236;2023-05-21T03:21:15;101385.25;;;12.11;77.36
49072;BME280;52656;52.610;10.236;2023-05-21T03:23:41;101383.53;;;12.10;77.87
49072;BME280;52656;52.610;10.236;2023-05-21T03:26:07;101380.28;;;12.27;76.65
49072;BME280;52656;52.610;10.236;2023-05-21T03:28:34;101385.22;;;12.13;77.86
49072;BME280;52656;52.610;10.236;2023-05-21T03:30:59;101378.66;;;12.23;77.47
49072;BME280;52656;52.610;10.236;2023-05-21T03:33:25;101373.94;;;12.31;76.83
49072;BME280;52656;52.610;10.236;2023-05-21T03:35:50;101373.00;;;12.32;76.72
49072;BME280;52656;52.610;10.236;2023-05-21T03:38:15;101372.94;;;12.34;76.41
49072;BME280;52656;52.610;10.236;2023-05-21T03:40:41;101371.91;;;12.38;76.74
49072;BME280;52656;52.610;10.236;2023-05-21T03:43:06;101365.78;;;12.36;76.33
49072;BME280;52656;52.610;10.236;2023-05-21T03:45:31;101368.63;;;12.31;76.72
49072;BME280;52656;52.610;10.236;2023-05-21T03:47:57;101368.88;;;12.49;76.05
49072;BME280;52656;52.610;10.236;2023-05-21T03:50:22;101367.28;;;12.43;76.52
49072;BME280;52656;52.610;10.236;2023-05-21T03:52:47;101362.41;;;12.56;75.95
49072;BME280;52656;52.610;10.236;2023-05-21T03:55:13;101359.09;;;12.73;75.10
49072;BME280;52656;52.610;10.236;2023-05-21T03:57:38;101361.63;;;12.76;74.96
49072;BME280;52656;52.610;10.236;2023-05-21T04:00:04;101367.28;;;12.90;74.39
49072;BME280;52656;52.610;10.236;2023-05-21T04:02:30;101368.75;;;12.97;74.07
49072;BME280;52656;52.610;10.236;2023-05-21T04:04:56;101372.47;;;13.15;73.59
49072;BME280;52656;52.610;10.236;2023-05-21T04:07:21;101367.81;;;13.42;72.39
49072;BME280;52656;52.610;10.236;2023-05-21T04:09:47;101369.03;;;13.55;71.95
49072;BME280;52656;52.610;10.236;2023-05-21T04:12:12;101370.63;;;13.81;70.51
49072;BME280;52656;52.610;10.236;2023-05-21T04:14:37;101371.28;;;13.86;70.00
49072;BME280;52656;52.610;10.236;2023-05-21T04:17:03;101373.53;;;13.75;70.62
49072;BME280;52656;52.610;10.236;2023-05-21T04:19:30;101376.00;;;13.80;70.59
49072;BME280;52656;52.610;10.236;2023-05-21T04:21:55;101374.88;;;13.65;71.37
49072;BME280;52656;52.610;10.236;2023-05-21T04:24:22;101370.38;;;13.67;71.12
49072;BME280;52656;52.610;10.236;2023-05-21T04:26:47;101368.75;;;13.83;70.78
49072;BME280;52656;52.610;10.236;2023-05-21T04:29:13;101372.22;;;13.85;70.11
49072;BME280;52656;52.610;10.236;2023-05-21T04:31:42;101372.63;;;14.17;69.14
49072;BME280;52656;52.610;10.236;2023-05-21T04:34:07;101377.78;;;14.20;69.01
49072;BME280;52656;52.610;10.236;2023-05-21T04:36:32;101372.56;;;14.37;68.39
49072;BME280;52656;52.610;10.236;2023-05-21T04:38:58;101366.34;;;14.95;65.92
49072;BME280;52656;52.610;10.236;2023-05-21T04:41:23;101367.66;;;14.86;66.05
49072;BME280;52656;52.610;10.236;2023-05-21T04:43:49;101360.47;;;15.06;65.38
49072;BME280;52656;52.610;10.236;2023-05-21T04:46:19;101369.72;;;15.35;63.93
49072;BME280;52656;52.610;10.236;2023-05-21T04:48:45;101366.44;;;15.64;63.33
49072;BME280;52656;52.610;10.236;2023-05-21T04:51:10;101368.81;;;16.05;61.27
49072;BME280;52656;52.610;10.236;2023-05-21T04:53:36;101365.53;;;16.00;60.99
49072;BME280;52656;52.610;10.236;2023-05-21T04:56:01;101374.66;;;16.62;59.59
49072;BME280;52656;52.610;10.236;2023-05-21T04:58:27;101360.47;;;17.39;56.89
49072;BME280;52656;52.610;10.236;2023-05-21T05:00:52;101360.34;;;17.57;56.09
49072;BME280;52656;52.610;10.236;2023-05-21T05:03:18;101360.03;;;18.21;54.70
49072;BME280;52656;52.610;10.236;2023-05-21T05:05:43;101354.66;;;18.21;53.92
49072;BME280;52656;52.610;10.236;2023-05-21T05:08:08;101357.81;;;18.42;53.65
49072;BME280;52656;52.610;10.236;2023-05-21T05:10:34;101356.66;;;18.46;53.56
49072;BME280;52656;52.610;10.236;2023-05-21T05:12:59;101349.28;;;19.06;52.14
49072;BME280;52656;52.610;10.236;2023-05-21T05:15:24;101353.97;;;18.75;52.15
49072;BME280;52656;52.610;10.236;2023-05-21T05:17:50;101355.00;;;18.87;52.28
49072;BME280;52656;52.610;10.236;2023-05-21T05:20:15;101359.28;;;19.58;50.79
49072;BME280;52656;52.610;10.236;2023-05-21T05:22:40;101357.91;;;19.38;51.40
49072;BME280;52656;52.610;10.236;2023-05-21T05:25:06;101357.63;;;18.60;52.92
49072;BME280;52656;52.610;10.236;2023-05-21T05:27:31;101354.44;;;18.82;52.58
49072;BME280;52656;52.610;10.236;2023-05-21T05:29:57;101360.03;;;19.06;52.07
49072;BME280;52656;52.610;10.236;2023-05-21T05:32:22;101366.75;;;18.71;52.76
49072;BME280;52656;52.610;10.236;2023-05-21T05:34:47;101360.53;;;19.52;51.24
49072;BME280;52656;52.610;10.236;2023-05-21T05:37:12;101357.53;;;20.35;49.22
49072;BME280;52656;52.610;10.236;2023-05-21T05:39:38;101360.59;;;19.77;50.21
49072;BME280;52656;52.610;10.236;2023-05-21T05:42:03;101360.84;;;20.00;50.33
49072;BME280;52656;52.610;10.236;2023-05-21T05:44:28;101358.25;;;19.86;49.74
49072;BME280;52656;52.610;10.236;2023-05-21T05:46:53;101359.97;;;19.47;50.98
49072;BME280;52656;52.610;10.236;2023-05-21T05:49:19;101355.47;;;19.47;51.16
49072;BME280;52656;52.610;10.236;2023-05-21T05:51:44;101365.56;;;18.18;54.98
49072;BME280;52656;52.610;10.236;2023-05-21T05:54:10;101360.66;;;17.96;56.39
49072;BME280;52656;52.610;10.236;2023-05-21T05:56:35;101362.34;;;17.83;57.04
49072;BME280;52656;52.610;10.236;2023-05-21T05:59:00;101355.78;;;18.46;55.46
49072;BME280;52656;52.610;10.236;2023-05-21T06:01:25;101360.97;;;18.77;54.37
49072;BME280;52656;52.610;10.236;2023-05-21T06:03:51;101363.16;;;18.42;54.80
49072;BME280;52656;52.610;10.236;2023-05-21T06:06:16;101362.50;;;19.09;53.66
49072;BME280;52656;52.610;10.236;2023-05-21T06:08:42;101361.38;;;19.40;52.46
49072;BME280;52656;52.610;10.236;2023-05-21T06:11:07;101365.34;;;19.47;52.53
49072;BME280;52656;52.610;10.236;2023-05-21T06:13:33;101347.50;;;20.37;50.58
49072;BME280;52656;52.610;10.236;2023-05-21T06:15:59;101349.03;;;20.90;49.18
49072;BME280;52656;52.610;10.236;2023-05-21T06:18:24;101353.53;;;20.40;50.65
49072;BME280;52656;52.610;10.236;2023-05-21T06:20:49;101357.91;;;19.77;51.69
49072;BME280;52656;52.610;10.236;2023-05-21T06:23:14;101352.09;;;19.96;51.40
49072;BME280;52656;52.610;10.236;2023-05-21T06:25:40;101348.53;;;19.03;53.62
49072;BME280;52656;52.610;10.236;2023-05-21T06:28:05;101348.69;;;19.94;51.64
49072;BME280;52656;52.610;10.236;2023-05-21T06:30:31;101349.31;;;20.49;49.93
49072;BME280;52656;52.610;10.236;2023-05-21T06:32:56;101352.09;;;20.47;50.15
49072;BME280;52656;52.610;10.236;2023-05-21T06:35:22;101369.41;;;19.13;53.16
49072;BME280;52656;52.610;10.236;2023-05-21T06:37:47;101358.38;;;19.57;52.50
49072;BME280;52656;52.610;10.236;2023-05-21T06:40:13;101353.19;;;19.14;53.08
49072;BME280;52656;52.610;10.236;2023-05-21T06:42:38;101359.19;;;18.49;55.58
49072;BME280;52656;52.610;10.236;2023-05-21T06:45:04;101358.88;;;18.54;56.34
49072;BME280;52656;52.610;10.236;2023-05-21T06:47:29;101348.13;;;18.68;55.84
49072;BME280;52656;52.610;10.236;2023-05-21T06:49:55;101346.03;;;19.00;54.97
49072;BME280;52656;52.610;10.236;2023-05-21T06:52:20;101352.00;;;18.91;55.38
49072;BME280;52656;52.610;10.236;2023-05-21T06:54:45;101346.94;;;18.87;55.33
49072;BME280;52656;52.610;10.236;2023-05-21T06:57:12;101344.53;;;18.96;55.23
49072;BME280;52656;52.610;10.236;2023-05-21T06:59:38;101347.88;;;19.27;54.20
49072;BME280;52656;52.610;10.236;2023-05-21T07:02:03;101341.81;;;18.69;55.39
49072;BME280;52656;52.610;10.236;2023-05-21T07:04:28;101334.31;;;19.56;53.47
49072;BME280;52656;52.610;10.236;2023-05-21T07:06:54;101335.31;;;19.67;52.95
49072;BME280;52656;52.610;10.236;2023-05-21T07:09:19;101327.03;;;19.83;52.17
49072;BME280;52656;52.610;10.236;2023-05-21T07:11:44;101331.66;;;19.68;52.93
49072;BME280;52656;52.610;10.236;2023-05-21T07:14:10;101336.94;;;20.34;51.37
49072;BME280;52656;52.610;10.236;2023-05-21T07:16:35;101340.50;;;20.84;49.93
49072;BME280;52656;52.610;10.236;2023-05-21T07:19:00;101336.81;;;20.97;49.02
49072;BME280;52656;52.610;10.236;2023-05-21T07:21:25;101326.66;;;22.07;46.72
49072;BME280;52656;52.610;10.236;2023-05-21T07:23:51;101341.94;;;23.18;44.29
49072;BME280;52656;52.610;10.236;2023-05-21T07:26:16;101328.41;;;24.13;42.27
49072;BME280;52656;52.610;10.236;2023-05-21T07:28:41;101327.53;;;24.93;40.55
49072;BME280;52656;52.610;10.236;2023-05-21T07:31:07;101330.66;;;24.79;40.79
49072;BME280;52656;52.610;10.236;2023-05-21T07:33:32;101335.06;;;23.25;42.96
49072;BME280;52656;52.610;10.236;2023-05-21T07:35:58;101325.91;;;24.00;42.21
49072;BME280;52656;52.610;10.236;2023-05-21T07:38:23;101333.38;;;24.08;41.71
49072;BME280;52656;52.610;10.236;2023-05-21T07:40:48;101335.09;;;23.88;42.39
49072;BME280;52656;52.610;10.236;2023-05-21T07:43:14;101327.91;;;23.98;41.98
49072;BME280;52656;52.610;10.236;2023-05-21T07:45:39;101339.28;;;23.39;43.13
49072;BME280;52656;52.610;10.236;2023-05-21T07:48:05;101332.72;;;23.95;42.43
49072;BME280;52656;52.610;10.236;2023-05-21T07:50:30;101332.44;;;23.35;43.46
49072;BME280;52656;52.610;10.236;2023-05-21T07:52:55;101334.00;;;24.52;41.16
49072;BME280;52656;52.610;10.236;2023-05-21T07:55:21;101315.97;;;24.72;40.62
49072;BME280;52656;52.610;10.236;2023-05-21T07:57:46;101323.91;;;25.14;40.09
49072;BME280;52656;52.610;10.236;2023-05-21T08:00:12;101328.34;;;23.62;43.42
49072;BME280;52656;52.610;10.236;2023-05-21T08:02:41;101331.41;;;22.93;44.49
49072;BME280;52656;52.610;10.236;2023-05-21T08:05:06;101327.63;;;21.83;46.89
49072;BME280;52656;52.610;10.236;2023-05-21T08:07:32;101326.09;;;22.59;45.55
49072;BME280;52656;52.610;10.236;2023-05-21T08:09:58;101323.19;;;21.36;48.33
49072;BME280;52656;52.610;10.236;2023-05-21T08:12:23;101319.97;;;21.66;47.80
49072;BME280;52656;52.610;10.236;2023-05-21T08:14:49;101325.19;;;21.56;48.12
49072;BME280;52656;52.610;10.236;2023-05-21T08:17:15;101315.41;;;22.24;46.93
49072;BME280;52656;52.610;10.236;2023-05-21T08:19:40;101315.53;;;22.22;46.39
49072;BME280;52656;52.610;10.236;2023-05-21T08:22:06;101314.63;;;22.78;46.35
49072;BME280;52656;52.610;10.236;2023-05-21T08:24:31;101318.19;;;22.90;45.22
49072;BME280;52656;52.610;10.236;2023-05-21T08:26:56;101314.25;;;22.94;45.13
49072;BME280;52656;52.610;10.236;2023-05-21T08:29:22;101316.44;;;23.85;43.89
49072;BME280;52656;52.610;10.236;2023-05-21T08:31:47;101314.75;;;25.73;40.15
49072;BME280;52656;52.610;10.236;2023-05-21T08:34:12;101316.28;;;25.95;39.28
49072;BME280;52656;52.610;10.236;2023-05-21T08:36:38;101309.22;;;25.36;40.19
49072;BME280;52656;52.610;10.236;2023-05-21T08:39:07;101309.69;;;24.62;42.17
49072;BME280;52656;52.610;10.236;2023-05-21T08:41:34;101304.78;;;25.25;40.89
49072;BME280;52656;52.610;10.236;2023-05-21T08:44:00;101308.63;;;25.42;40.48
49072;BME280;52656;52.610;10.236;2023-05-21T08:46:28;101313.81;;;24.66;42.19
49072;BME280;52656;52.610;10.236;2023-05-21T08:48:56;101309.34;;;24.45;41.52
49072;BME280;52656;52.610;10.236;2023-05-21T08:51:22;101298.16;;;24.79;41.12
49072;BME280;52656;52.610;10.236;2023-05-21T08:53:49;101304.34;;;25.29;40.64
49072;BME280;52656;52.610;10.236;2023-05-21T08:56:16;101308.31;;;25.06;40.81
49072;BME280;52656;52.610;10.236;2023-05-21T08:58:45;101302.34;;;26.17;39.69
49072;BME280;52656;52.610;10.236;2023-05-21T09:01:11;101302.13;;;26.66;37.87
49072;BME280;52656;52.610;10.236;2023-05-21T09:03:38;101308.53;;;27.46;36.73
49072;BME280;52656;52.610;10.236;2023-05-21T09:06:05;101301.97;;;27.30;37.06
49072;BME280;52656;52.610;10.236;2023-05-21T09:08:34;101306.38;;;27.49;37.00
49072;BME280;52656;52.610;10.236;2023-05-21T09:11:02;101300.38;;;27.64;36.59
49072;BME280;52656;52.610;10.236;2023-05-21T09:13:30;101292.13;;;28.25;36.59
49072;BME280;52656;52.610;10.236;2023-05-21T09:15:57;101290.28;;;28.42;35.13
49072;BME280;52656;52.610;10.236;2023-05-21T09:18:22;101293.88;;;28.93;34.45
49072;BME280;52656;52.610;10.236;2023-05-21T09:20:48;101296.25;;;28.80;35.02
49072;BME280;52656;52.610;10.236;2023-05-21T09:23:16;101299.31;;;27.82;36.05
49072;BME280;52656;52.610;10.236;2023-05-21T09:25:46;101307.88;;;27.44;36.88
49072;BME280;52656;52.610;10.236;2023-05-21T09:28:16;101314.78;;;26.57;38.41
49072;BME280;52656;52.610;10.236;2023-05-21T09:30:46;101307.72;;;26.37;38.61
49072;BME280;52656;52.610;10.236;2023-05-21T09:33:23;101306.75;;;25.71;39.61
49072;BME280;52656;52.610;10.236;2023-05-21T09:35:48;101309.59;;;25.89;39.54
49072;BME280;52656;52.610;10.236;2023-05-21T09:38:15;101314.56;;;26.41;39.16
49072;BME280;52656;52.610;10.236;2023-05-21T09:40:44;101301.97;;;26.67;38.47
49072;BME280;52656;52.610;10.236;2023-05-21T09:43:13;101295.69;;;26.29;39.39
49072;BME280;52656;52.610;10.236;2023-05-21T09:45:49;101300.63;;;25.50;40.36
49072;BME280;52656;52.610;10.236;2023-05-21T09:48:16;101321.19;;;25.14;41.50
49072;BME280;52656;52.610;10.236;2023-05-21T09:50:41;101310.84;;;24.88;42.03
49072;BME280;52656;52.610;10.236;2023-05-21T09:53:11;101311.56;;;24.71;42.47
49072;BME280;52656;52.610;10.236;2023-05-21T09:55:38;101317.41;;;24.76;42.78
49072;BME280;52656;52.610;10.236;2023-05-21T09:58:04;101314.13;;;24.42;43.41
49072;BME280;52656;52.610;10.236;2023-05-21T10:00:30;101310.94;;;24.58;43.35
49072;BME280;52656;52.610;10.236;2023-05-21T10:02:59;101315.69;;;24.35;43.43
49072;BME280;52656;52.610;10.236;2023-05-21T10:05:26;101316.19;;;24.19;43.22
49072;BME280;52656;52.610;10.236;2023-05-21T10:07:52;101314.94;;;24.53;43.05
49072;BME280;52656;52.610;10.236;2023-05-21T10:10:20;101305.97;;;24.01;43.87
49072;BME280;52656;52.610;10.236;2023-05-21T10:12:47;101303.00;;;24.75;43.15
49072;BME280;52656;52.610;10.236;2023-05-21T10:15:18;101298.50;;;25.34;41.71
49072;BME280;52656;52.610;10.236;2023-05-21T10:17:47;101304.59;;;24.97;42.36
49072;BME280;52656;52.610;10.236;2023-05-21T10:20:13;101300.31;;;24.85;42.50
49072;BME280;52656;52.610;10.236;2023-05-21T10:22:39;101295.75;;;26.20;40.15
49072;BME280;52656;52.610;10.236;2023-05-21T10:25:08;101293.59;;;26.78;39.48
49072;BME280;52656;52.610;10.236;2023-05-21T10:27:35;101293.59;;;26.78;39.20
49072;BME280;52656;52.610;10.236;2023-05-21T10:30:02;101290.78;;;26.70;39.24
49072;BME280;52656;52.610;10.236;2023-05-21T10:32:29;101295.69;;;26.29;40.38
49072;BME280;52656;52.610;10.236;2023-05-21T10:34:56;101287.22;;;26.42;39.64
49072;BME280;52656;52.610;10.236;2023-05-21T10:37:25;101293.19;;;25.81;40.82
49072;BME280;52656;52.610;10.236;2023-05-21T10:39:52;101291.34;;;24.94;42.13
49072;BME280;52656;52.610;10.236;2023-05-21T10:42:23;101285.59;;;25.65;41.35
49072;BME280;52656;52.610;10.236;2023-05-21T10:47:52;101281.44;;;25.90;41.13
49072;BME280;52656;52.610;10.236;2023-05-21T10:53:14;101274.38;;;26.44;40.35
49072;BME280;52656;52.610;10.236;2023-05-21T10:58:36;101270.94;;;25.00;42.86
49072;BME280;52656;52.610;10.236;2023-05-21T11:01:05;101271.38;;;25.53;42.24
49072;BME280;52656;52.610;10.236;2023-05-21T11:03:32;101262.38;;;25.43;42.37
49072;BME280;52656;52.610;10.236;2023-05-21T11:06:01;101264.75;;;24.49;44.11
49072;BME280;52656;52.610;10.236;2023-05-21T11:08:29;101259.25;;;24.90;43.61
49072;BME280;52656;52.610;10.236;2023-05-21T11:10:57;101259.66;;;24.75;44.07
49072;BME280;52656;52.610;10.236;2023-05-21T11:13:26;101259.16;;;24.51;44.40
49072;BME280;52656;52.610;10.236;2023-05-21T11:21:04;101253.78;;;24.70;44.04
49072;BME280;52656;52.610;10.236;2023-05-21T11:26:18;101248.38;;;25.38;43.20
49072;BME280;52656;52.610;10.236;2023-05-21T11:28:43;101241.53;;;26.00;41.92
49072;BME280;52656;52.610;10.236;2023-05-21T11:31:25;101250.25;;;26.04;41.80
49072;BME280;52656;52.610;10.236;2023-05-21T11:36:36;101234.13;;;26.30;41.84
49072;BME280;52656;52.610;10.236;2023-05-21T11:39:28;101236.94;;;26.38;41.93
49072;BME280;52656;52.610;10.236;2023-05-21T11:41:57;101237.66;;;26.40;41.87
49072;BME280;52656;52.610;10.236;2023-05-21T11:47:13;101233.91;;;26.14;41.83
49072;BME280;52656;52.610;10.236;2023-05-21T11:49:42;101229.16;;;26.16;42.46
49072;BME280;52656;52.610;10.236;2023-05-21T11:52:09;101228.13;;;26.54;41.82
49072;BME280;52656;52.610;10.236;2023-05-21T11:55:04;101234.66;;;26.06;42.75
49072;BME280;52656;52.610;10.236;2023-05-21T11:57:29;101231.56;;;25.35;43.23
49072;BME280;52656;52.610;10.236;2023-05-21T11:59:55;101247.06;;;25.71;42.83
49072;BME280;52656;52.610;10.236;2023-05-21T12:02:24;101231.81;;;26.08;43.16
49072;BME280;52656;52.610;10.236;2023-05-21T12:04:49;101243.78;;;25.68;42.90
49072;BME280;52656;52.610;10.236;2023-05-21T12:07:17;101231.34;;;25.65;42.96
49072;BME280;52656;52.610;10.236;2023-05-21T12:09:45;101222.22;;;25.56;43.32
49072;BME280;52656;52.610;10.236;2023-05-21T12:12:13;101227.22;;;25.51;43.40
49072;BME280;52656;52.610;10.236;2023-05-21T12:14:42;101213.19;;;25.66;43.29
49072;BME280;52656;52.610;10.236;2023-05-21T12:17:08;101220.69;;;25.44;43.75
49072;BME280;52656;52.610;10.236;2023-05-21T12:19:35;101207.19;;;25.81;42.24
49072;BME280;52656;52.610;10.236;2023-05-21T12:22:02;101206.47;;;25.79;43.35
49072;BME280;52656;52.610;10.236;2023-05-21T12:24:28;101213.25;;;26.03;42.77
49072;BME280;52656;52.610;10.236;2023-05-21T12:26:54;101206.59;;;26.15;42.76
49072;BME280;52656;52.610;10.236;2023-05-21T12:29:19;101206.47;;;26.44;42.31
49072;BME280;52656;52.610;10.236;2023-05-21T12:31:49;101204.84;;;25.96;42.77
49072;BME280;52656;52.610;10.236;2023-05-21T12:34:14;101204.13;;;26.22;42.15
49072;BME280;52656;52.610;10.236;2023-05-21T12:36:43;101227.81;;;26.02;42.52
49072;BME280;52656;52.610;10.236;2023-05-21T12:39:15;101213.59;;;26.18;42.07
49072;BME280;52656;52.610;10.236;2023-05-21T12:41:42;101215.97;;;25.93;42.46
49072;BME280;52656;52.610;10.236;2023-05-21T12:44:07;101206.81;;;26.04;42.33
49072;BME280;52656;52.610;10.236;2023-05-21T12:46:33;101201.25;;;26.23;41.88
49072;BME280;52656;52.610;10.236;2023-05-21T12:48:59;101199.28;;;26.43;42.09
49072;BME280;52656;52.610;10.236;2023-05-21T12:51:25;101198.22;;;26.36;41.42
49072;BME280;52656;52.610;10.236;2023-05-21T12:53:50;101197.75;;;26.41;41.49
49072;BME280;52656;52.610;10.236;2023-05-21T12:56:16;101190.41;;;26.87;40.49
49072;BME280;52656;52.610;10.236;2023-05-21T12:58:42;101194.44;;;27.00;39.69